Time;durP1;ratioP1;P1;durP2;ratioP2;P2;SDS_P1;SDS_P2;PMS_P1;PMS_P2;Temp;Humidity;BMP_temperature;BMP_pressure;BME280_temperature;BME280_humidity;BME280_pressure;Samples;Min_cycle;Max_cycle;Signal;HPM_P1;HPM_P2
2022/01/29 00:01:31;;;;;;;;;17.33;15.67;;;;;10.35;59.11;103169.41;4960333;28;45494;-89
2022/01/29 00:03:57;;;;;;;;;14.00;14.00;;;;;10.43;59.25;103172.91;4960122;28;48540;-90
2022/01/29 00:06:22;;;;;;;;;17.33;14.33;;;;;10.85;59.28;103239.41;4960228;28;45598;-90
2022/01/29 00:08:48;;;;;;;;;15.33;14.33;;;;;10.55;59.29;103193.31;4977901;28;45437;-89
2022/01/29 00:11:16;;;;;;;;;15.67;13.33;;;;;10.39;59.18;103167.59;4977947;28;45360;-90
2022/01/29 00:13:42;;;;;;;;;17.33;15.00;;;;;10.39;59.73;103173.81;4960117;28;47821;-90
2022/01/29 00:16:07;;;;;;;;;16.00;13.00;;;;;10.79;59.79;103229.66;4960063;28;45356;-91
2022/01/29 00:18:34;;;;;;;;;15.67;12.00;;;;;10.77;59.64;103231.47;4960495;28;45399;-90
2022/01/29 00:20:59;;;;;;;;;15.00;14.67;;;;;10.74;59.59;103226.13;4959937;28;45503;-90
2022/01/29 00:23:24;;;;;;;;;16.33;14.00;;;;;10.36;59.71;103160.50;4959514;28;47159;-90
2022/01/29 00:25:50;;;;;;;;;14.67;13.67;;;;;10.43;59.96;103172.03;4977700;28;45569;-90
2022/01/29 00:28:15;;;;;;;;;16.00;14.00;;;;;10.23;59.61;103127.66;4960081;28;45536;-90
2022/01/29 00:30:43;;;;;;;;;16.33;14.33;;;;;10.76;59.85;103208.31;4978091;28;45417;-90
2022/01/29 00:33:12;;;;;;;;;14.67;13.67;;;;;10.39;60.04;103143.59;4979064;28;45402;-90
2022/01/29 00:35:39;;;;;;;;;15.33;13.67;;;;;10.31;59.88;103136.53;4979240;28;45802;-90
2022/01/29 00:38:04;;;;;;;;;11.67;11.00;;;;;10.47;59.91;103155.13;4997321;28;45392;-89
2022/01/29 00:40:31;;;;;;;;;16.00;12.67;;;;;10.23;59.81;103122.34;4967162;28;45412;-90
2022/01/29 00:42:57;;;;;;;;;15.33;15.00;;;;;10.73;59.75;103203.03;4977319;28;46182;-90
2022/01/29 00:45:22;;;;;;;;;14.67;14.67;;;;;10.26;60.22;103116.09;4977228;28;45381;-91
2022/01/29 00:47:47;;;;;;;;;15.67;14.00;;;;;10.61;60.47;103179.97;4956322;28;45401;-90
2022/01/29 00:50:13;;;;;;;;;18.33;13.00;;;;;10.55;60.08;103188.84;4957779;28;45322;-89
2022/01/29 00:52:38;;;;;;;;;14.00;11.00;;;;;9.96;60.51;103087.78;4957958;28;46010;-90
2022/01/29 00:55:06;;;;;;;;;14.33;13.33;;;;;10.13;60.42;103110.78;4957973;28;45771;-91
2022/01/29 00:57:33;;;;;;;;;10.67;9.67;;;;;10.59;61.10;103192.41;4958012;28;45496;-90
2022/01/29 00:59:59;;;;;;;;;14.00;13.00;;;;;10.21;61.11;103134.78;4956609;28;45667;-90
2022/01/29 01:02:25;;;;;;;;;17.33;15.00;;;;;10.23;61.24;103141.00;4957534;28;46232;-91
2022/01/29 01:04:50;;;;;;;;;14.67;13.33;;;;;10.40;61.76;103164.06;4958684;28;45291;-90
2022/01/29 01:07:15;;;;;;;;;16.33;12.33;;;;;10.15;62.66;103114.34;4960910;28;45593;-90
2022/01/29 01:09:41;;;;;;;;;11.67;11.67;;;;;9.97;62.23;103071.78;4960165;28;45352;-90
2022/01/29 01:12:06;;;;;;;;;18.00;15.00;;;;;10.12;62.79;103094.84;4959285;28;46969;-90
2022/01/29 01:14:32;;;;;;;;;15.67;13.67;;;;;10.61;62.45;103174.63;4959581;28;45505;-91
2022/01/29 01:16:57;;;;;;;;;12.67;11.00;;;;;10.51;62.54;103159.53;4959999;28;45418;-90
2022/01/29 01:19:25;;;;;;;;;14.33;12.00;;;;;10.21;62.35;103107.22;4960551;28;45409;-90
2022/01/29 01:21:55;;;;;;;;;10.00;10.00;;;;;9.85;62.64;103046.06;4975768;28;48622;-90
2022/01/29 01:24:21;;;;;;;;;11.33;9.67;;;;;10.60;62.97;103175.50;4958180;28;45440;-89
2022/01/29 01:26:47;;;;;;;;;11.67;11.67;;;;;10.60;63.11;103171.94;4956201;28;45506;-88
2022/01/29 01:29:13;;;;;;;;;16.00;16.00;;;;;10.21;62.87;103096.56;4958240;28;45400;-87
2022/01/29 01:31:39;;;;;;;;;13.33;13.33;;;;;10.54;63.22;103157.75;4955137;28;47230;-85
2022/01/29 01:34:06;;;;;;;;;14.00;12.00;;;;;10.54;63.71;103167.56;4958111;28;45436;-85
2022/01/29 01:36:39;;;;;;;;;13.00;12.67;;;;;10.53;63.84;103168.44;4959984;28;45362;-85
2022/01/29 01:39:05;;;;;;;;;17.67;15.00;;;;;10.32;64.19;103132.06;4960600;28;45597;-85
2022/01/29 01:41:37;;;;;;;;;15.00;11.67;;;;;10.43;64.95;103159.59;4959722;28;46487;-85
2022/01/29 01:44:04;;;;;;;;;13.33;12.00;;;;;10.47;65.07;103165.81;4958886;28;45582;-86
2022/01/29 01:46:29;;;;;;;;;11.00;10.00;;;;;10.43;65.21;103161.38;4959517;28;45558;-85
2022/01/29 01:48:56;;;;;;;;;12.33;8.67;;;;;9.97;65.50;103073.56;4979134;28;45535;-85
2022/01/29 01:51:21;;;;;;;;;12.33;11.00;;;;;10.35;65.17;103143.63;4961438;28;47638;-84
2022/01/29 01:53:47;;;;;;;;;12.33;12.33;;;;;10.11;65.36;103101.94;4979964;28;45514;-84
2022/01/29 01:56:13;;;;;;;;;14.33;13.67;;;;;10.40;66.07;103159.59;4979811;28;45331;-84
2022/01/29 01:58:38;;;;;;;;;14.33;12.00;;;;;10.09;65.82;103106.38;4980112;28;45465;-85
2022/01/29 02:01:04;;;;;;;;;14.00;14.00;;;;;10.25;65.78;103132.97;4979035;28;47363;-85
2022/01/29 02:03:29;;;;;;;;;16.33;14.33;;;;;9.92;65.97;103068.25;4979490;28;45260;-84
2022/01/29 02:05:56;;;;;;;;;14.00;14.00;;;;;10.33;66.05;103136.53;4979818;28;45346;-85
2022/01/29 02:08:21;;;;;;;;;14.00;12.67;;;;;10.29;66.03;103127.66;4979386;28;45405;-84
2022/01/29 02:10:48;;;;;;;;;10.33;10.00;;;;;9.90;66.20;103068.28;4979334;28;45405;-85
2022/01/29 02:13:13;;;;;;;;;17.00;13.00;;;;;10.05;66.18;103085.97;4979149;28;45385;-85
2022/01/29 02:15:39;;;;;;;;;14.33;13.67;;;;;10.02;66.21;103087.75;4977393;28;45458;-85
2022/01/29 02:18:05;;;;;;;;;18.33;16.67;;;;;10.28;66.15;103124.97;4979706;28;45572;-85
2022/01/29 02:20:32;;;;;;;;;20.00;15.33;;;;;10.34;66.29;103139.16;4961259;28;48283;-85
2022/01/29 02:23:00;;;;;;;;;12.67;12.00;;;;;10.40;66.40;103138.28;4979323;28;45367;-85
2022/01/29 02:25:36;;;;;;;;;15.00;14.00;;;;;10.41;66.10;103126.72;4978242;28;45259;-84
2022/01/29 02:28:23;;;;;;;;;14.67;13.33;;;;;10.29;65.64;103097.44;4978900;28;45311;-85
2022/01/29 02:30:56;;;;;;;;;12.33;12.00;;;;;10.45;66.18;103114.25;4978307;28;45779;-85
2022/01/29 02:33:22;;;;;;;;;13.00;13.00;;;;;10.05;65.91;103043.34;4965127;28;45406;-85
2022/01/29 02:35:49;;;;;;;;;16.00;14.00;;;;;10.10;65.93;103045.97;4998858;28;45560;-85
2022/01/29 02:38:18;;;;;;;;;18.00;14.67;;;;;10.38;66.28;103091.19;4991778;28;45472;-84
2022/01/29 02:40:52;;;;;;;;;13.67;13.00;;;;;10.21;66.24;103067.22;4978423;28;46610;-85
2022/01/29 02:43:28;;;;;;;;;12.33;11.33;;;;;10.35;66.49;103092.09;4979011;28;45378;-85
2022/01/29 02:46:49;;;;;;;;;13.67;11.33;;;;;10.02;66.75;103026.47;4990715;28;45234;-85
2022/01/29 02:48:48;;;;;;;;;14.33;13.67;;;;;10.01;66.61;103027.38;4975563;28;45626;-85
2022/01/29 02:51:13;;;;;;;;;14.00;13.00;;;;;9.82;67.20;102999.94;4977779;28;45394;-84
2022/01/29 02:53:40;;;;;;;;;15.67;12.67;;;;;10.18;67.30;103056.59;4977846;28;45498;-84
2022/01/29 02:56:05;;;;;;;;;13.00;12.00;;;;;10.30;67.31;103075.22;4978822;28;45498;-84
2022/01/29 02:58:31;;;;;;;;;14.00;12.00;;;;;9.96;67.86;103019.41;4961321;28;45561;-85
2022/01/29 03:00:56;;;;;;;;;14.00;12.67;;;;;10.23;67.65;103066.38;4978584;28;46520;-85
2022/01/29 03:03:21;;;;;;;;;14.00;14.00;;;;;10.29;67.80;103057.47;4960761;28;49936;-85
2022/01/29 03:05:47;;;;;;;;;12.33;11.00;;;;;10.29;68.02;103054.81;4978439;28;45446;-84
2022/01/29 03:08:12;;;;;;;;;2.00;1.00;;;;;9.90;67.87;102988.38;4979163;28;45326;-84
2022/01/29 03:10:38;;;;;;;;;12.33;11.67;;;;;10.21;67.94;103035.25;4978328;28;45469;-85
2022/01/29 03:13:05;;;;;;;;;13.00;13.00;;;;;10.34;67.52;103047.66;4978322;28;45457;-85
2022/01/29 03:15:30;;;;;;;;;11.00;11.00;;;;;10.13;68.25;103014.84;4977589;28;45485;-85
2022/01/29 03:17:56;;;;;;;;;10.00;10.00;;;;;10.37;68.17;103054.75;4978483;28;45502;-84
2022/01/29 03:20:22;;;;;;;;;12.00;12.00;;;;;10.34;68.05;103039.66;4978415;28;45460;-84
2022/01/29 03:22:47;;;;;;;;;11.33;9.67;;;;;10.19;68.07;103018.41;4978308;28;45350;-85
2022/01/29 03:25:12;;;;;;;;;11.67;11.67;;;;;9.54;68.14;102906.84;4978353;28;45279;-85
2022/01/29 03:27:38;;;;;;;;;11.67;11.67;;;;;10.33;68.27;103043.25;4978262;28;45222;-84
2022/01/29 03:30:05;;;;;;;;;12.33;10.00;;;;;9.90;68.19;102985.69;4978406;28;46096;-84
2022/01/29 03:32:31;;;;;;;;;9.67;7.67;;;;;10.33;68.24;103048.56;4978198;28;45343;-84
2022/01/29 03:34:57;;;;;;;;;11.00;11.00;;;;;10.35;68.34;103050.31;4995121;28;45365;-83
2022/01/29 03:37:22;;;;;;;;;13.33;11.33;;;;;9.77;68.62;102959.13;4998135;28;45392;-84
2022/01/29 03:39:48;;;;;;;;;11.33;10.33;;;;;10.17;68.50;103022.88;4997654;28;46454;-85
2022/01/29 03:42:14;;;;;;;;;12.00;11.00;;;;;10.01;68.48;102998.94;4997533;28;45437;-84
2022/01/29 03:44:40;;;;;;;;;12.67;9.33;;;;;9.85;68.68;102966.16;4988320;28;45350;-85
2022/01/29 03:47:05;;;;;;;;;12.00;10.67;;;;;10.35;68.25;103047.66;4978240;28;45472;-84
2022/01/29 03:49:31;;;;;;;;;11.67;10.00;;;;;10.31;68.36;103048.56;4977723;28;46374;-84
2022/01/29 03:51:57;;;;;;;;;10.33;9.67;;;;;10.18;68.88;103021.94;4977841;28;45339;-84
2022/01/29 03:54:22;;;;;;;;;9.67;8.00;;;;;9.99;69.19;102999.84;4978298;28;45616;-84
2022/01/29 03:56:47;;;;;;;;;13.00;11.33;;;;;10.28;69.21;103037.03;4977968;28;45224;-84
2022/01/29 03:59:13;;;;;;;;;14.33;11.33;;;;;10.00;69.12;102985.66;4977946;28;46483;-84
2022/01/29 04:01:38;;;;;;;;;12.00;12.00;;;;;10.10;68.91;103006.00;4977714;28;48611;-84
2022/01/29 04:04:03;;;;;;;;;12.33;10.33;;;;;10.27;68.92;103033.44;4977920;28;45366;-84
2022/01/29 04:06:30;;;;;;;;;14.00;14.00;;;;;10.27;69.34;103041.44;4977528;28;45328;-84
2022/01/29 04:08:56;;;;;;;;;15.33;12.00;;;;;10.28;69.06;103048.59;4976988;28;46094;-84
2022/01/29 04:11:22;;;;;;;;;14.67;13.67;;;;;10.04;69.36;103003.38;4976711;28;45565;-83
2022/01/29 04:13:49;;;;;;;;;12.00;10.67;;;;;10.14;69.24;103021.97;4978000;28;45438;-84
2022/01/29 04:16:16;;;;;;;;;13.33;12.33;;;;;10.27;69.57;103036.09;4977425;28;45432;-83
2022/01/29 04:18:55;;;;;;;;;10.33;8.00;;;;;10.24;69.14;103033.47;4978057;28;46685;-83
2022/01/29 04:21:20;;;;;;;;;10.67;9.67;;;;;10.01;69.33;102998.06;4971361;28;45465;-84
2022/01/29 04:23:46;;;;;;;;;12.33;10.67;;;;;9.91;69.21;102973.25;4977391;28;45363;-84
2022/01/29 04:26:11;;;;;;;;;10.67;10.67;;;;;10.03;69.59;102978.50;4977606;28;45417;-84
2022/01/29 04:28:40;;;;;;;;;13.67;11.00;;;;;10.24;69.39;103022.81;4977400;28;46547;-84
2022/01/29 04:31:11;;;;;;;;;14.67;11.00;;;;;9.98;69.42;102966.13;4976774;28;45712;-84
2022/01/29 04:33:37;;;;;;;;;9.00;9.00;;;;;10.12;69.15;102996.25;4976809;28;45606;-84
2022/01/29 04:36:05;;;;;;;;;12.00;10.33;;;;;10.44;69.21;103046.72;4977098;28;45472;-84
2022/01/29 04:38:31;;;;;;;;;15.67;12.00;;;;;10.39;69.38;103032.53;4977961;28;45588;-84
2022/01/29 04:41:00;;;;;;;;;11.33;10.33;;;;;10.44;69.69;103035.16;4979745;28;45631;-84
2022/01/29 04:43:26;;;;;;;;;10.67;9.00;;;;;10.41;69.75;103025.41;4980960;28;45506;-84
2022/01/29 04:45:51;;;;;;;;;11.00;9.33;;;;;10.48;70.00;103032.47;4980601;28;46404;-84
2022/01/29 04:48:16;;;;;;;;;12.67;11.00;;;;;10.18;69.73;102971.31;4980222;28;45497;-84
2022/01/29 04:50:42;;;;;;;;;2.00;0.67;;;;;10.11;69.79;102957.16;4980173;28;45430;-85
2022/01/29 04:53:08;;;;;;;;;10.00;10.00;;;;;10.56;70.10;103035.97;4962710;28;45458;-85
2022/01/29 04:55:34;;;;;;;;;12.67;11.00;;;;;10.13;69.85;102956.25;4978710;28;45733;-85
2022/01/29 04:57:59;;;;;;;;;8.00;8.00;;;;;10.48;69.68;103008.47;4980425;28;45469;-85
2022/01/29 05:00:25;;;;;;;;;11.67;8.67;;;;;10.13;69.70;102950.91;4980167;28;45457;-83
2022/01/29 05:02:56;;;;;;;;;9.33;7.67;;;;;10.20;69.68;102956.22;4979933;28;45415;-84
2022/01/29 05:05:22;;;;;;;;;11.00;9.00;;;;;10.50;69.96;103019.13;4979710;28;45331;-83
2022/01/29 05:07:48;;;;;;;;;10.67;10.00;;;;;10.06;69.88;102949.19;4979755;28;46046;-84
2022/01/29 05:10:14;;;;;;;;;7.67;7.00;;;;;10.25;69.86;102989.03;4979457;28;45758;-84
2022/01/29 05:12:57;;;;;;;;;12.00;10.67;;;;;10.21;70.01;102953.53;4979896;28;45437;-83
2022/01/29 05:15:47;;;;;;;;;8.00;8.00;;;;;10.22;69.84;102957.09;4960768;28;45359;-82
2022/01/29 05:29:11;;;;;;;;;11.33;10.33;;;;;10.50;69.90;103006.69;4979479;28;45768;-83
2022/01/29 05:31:37;;;;;;;;;14.00;10.33;;;;;10.62;70.17;103020.81;4979433;28;45387;-83
2022/01/29 05:34:02;;;;;;;;;13.00;13.00;;;;;10.49;69.66;102988.06;4979450;28;45363;-83
2022/01/29 05:36:28;;;;;;;;;12.00;10.33;;;;;10.62;70.11;103012.81;4960898;28;45271;-83
2022/01/29 05:38:53;;;;;;;;;11.00;11.00;;;;;10.57;70.10;102995.06;4959970;28;46447;-83
2022/01/29 05:41:19;;;;;;;;;11.33;10.33;;;;;10.63;70.04;103002.16;4952859;28;45327;-83
2022/01/29 05:43:44;;;;;;;;;11.00;9.33;;;;;10.67;69.99;103019.88;4980098;28;45523;-82
2022/01/29 05:46:14;;;;;;;;;12.00;10.67;;;;;10.60;70.41;103001.28;4979462;28;45567;-83
2022/01/29 05:48:41;;;;;;;;;8.00;8.00;;;;;10.56;70.12;102995.97;4979504;28;46733;-82
2022/01/29 05:51:07;;;;;;;;;11.00;11.00;;;;;10.45;70.26;102971.19;4961889;28;45793;-82
2022/01/29 05:53:32;;;;;;;;;12.67;11.00;;;;;10.45;70.19;102962.28;4960518;28;45410;-84
2022/01/29 05:55:58;;;;;;;;;12.33;10.00;;;;;10.69;70.06;103009.22;4979161;28;45318;-83
2022/01/29 05:58:23;;;;;;;;;12.00;11.33;;;;;10.53;70.36;102981.78;4978596;28;45441;-82
2022/01/29 06:00:49;;;;;;;;;11.67;10.00;;;;;10.59;70.17;102996.84;4960895;28;45367;-82
2022/01/29 06:03:14;;;;;;;;;9.00;7.67;;;;;10.60;70.42;102998.63;4978522;28;45441;-82
2022/01/29 06:05:39;;;;;;;;;11.00;11.00;;;;;10.58;70.60;102982.63;4978649;28;45527;-82
2022/01/29 06:08:05;;;;;;;;;12.00;10.00;;;;;10.62;70.70;102994.16;4978799;28;46382;-82
2022/01/29 06:10:31;;;;;;;;;10.67;10.33;;;;;10.63;70.41;102985.25;4977282;28;45497;-82
2022/01/29 06:13:01;;;;;;;;;10.67;10.67;;;;;10.67;70.62;102998.53;4978607;28;45342;-84
2022/01/29 06:15:27;;;;;;;;;13.33;11.00;;;;;10.74;70.74;102994.94;4978644;28;45236;-82
2022/01/29 06:17:53;;;;;;;;;8.33;8.33;;;;;10.54;70.20;102956.91;4978700;28;45592;-84
2022/01/29 06:20:19;;;;;;;;;10.67;9.00;;;;;10.70;69.90;102979.88;4978373;28;45651;-85
2022/01/29 06:22:44;;;;;;;;;9.67;8.67;;;;;10.08;70.20;102886.09;4961184;28;45281;-86
2022/01/29 06:25:09;;;;;;;;;11.00;11.00;;;;;10.60;69.99;102954.16;4978968;28;45275;-87
2022/01/29 06:27:35;;;;;;;;;10.00;10.00;;;;;10.61;70.13;102958.63;4978479;28;45497;-85
2022/01/29 06:30:00;;;;;;;;;8.67;8.67;;;;;10.34;69.77;102896.59;4961395;28;45631;-85
2022/01/29 06:32:25;;;;;;;;;12.33;10.00;;;;;10.57;69.84;102938.19;4978636;28;46183;-87
2022/01/29 06:34:51;;;;;;;;;12.00;10.00;;;;;10.73;69.74;102966.50;4962776;28;45347;-88
2022/01/29 06:37:16;;;;;;;;;12.00;11.00;;;;;10.99;69.90;103003.63;4961457;28;46916;-84
2022/01/29 06:39:42;;;;;;;;;9.33;9.00;;;;;10.53;69.54;102921.31;4961410;28;45620;-86
2022/01/29 06:42:07;;;;;;;;;6.00;6.00;;;;;10.38;69.86;102901.94;4958490;28;45467;-86
2022/01/29 06:44:33;;;;;;;;;8.00;8.00;;;;;10.27;69.95;102877.97;4978383;28;45353;-83
2022/01/29 06:46:58;;;;;;;;;8.33;8.33;;;;;11.02;69.91;102999.16;4961438;28;48519;-84
2022/01/29 06:49:23;;;;;;;;;8.67;8.67;;;;;10.69;69.97;102932.75;4978699;28;53440;-87
2022/01/29 06:51:49;;;;;;;;;9.00;9.00;;;;;10.78;69.78;102938.00;4978978;28;45409;-95
2022/01/29 06:54:14;;;;;;;;;11.00;9.33;;;;;10.92;70.01;102971.69;4961725;28;45427;-88
2022/01/29 06:56:39;;;;;;;;;11.00;9.00;;;;;11.09;69.70;102995.53;4960514;28;46251;-84
2022/01/29 06:59:05;;;;;;;;;9.00;7.00;;;;;10.85;70.04;102953.97;4978720;28;45445;-86
2022/01/29 07:01:30;;;;;;;;;11.67;9.67;;;;;10.92;69.89;102967.22;4977460;28;45433;-86
2022/01/29 07:03:55;;;;;;;;;11.00;8.67;;;;;10.74;69.45;102930.91;4979072;28;45363;-86
2022/01/29 07:06:21;;;;;;;;;9.00;7.67;;;;;10.80;69.70;102937.13;4977251;28;56037;-85
2022/01/29 07:08:46;;;;;;;;;9.33;8.00;;;;;11.16;69.73;103003.44;4961072;28;45473;-90
2022/01/29 07:11:12;;;;;;;;;9.67;8.67;;;;;10.77;69.54;102927.38;4979017;28;45407;-92
2022/01/29 07:13:37;;;;;;;;;4.33;3.67;;;;;11.01;69.70;102960.91;4961064;28;45406;-87
2022/01/29 07:16:02;;;;;;;;;8.00;8.00;;;;;10.81;69.80;102920.19;4978421;28;45364;-87
2022/01/29 07:18:28;;;;;;;;;9.00;8.00;;;;;10.77;69.59;102930.03;4977975;28;45375;-87
2022/01/29 07:20:53;;;;;;;;;8.67;7.33;;;;;10.84;69.68;102923.75;4978051;28;45240;-87
2022/01/29 07:23:18;;;;;;;;;4.67;4.67;;;;;10.63;69.42;102891.91;4961168;28;45316;-87
2022/01/29 07:25:44;;;;;;;;;8.00;8.00;;;;;11.12;69.46;102958.13;4977967;28;49965;-87
2022/01/29 07:28:09;;;;;;;;;5.00;5.00;;;;;10.84;69.68;102918.41;4978055;28;45227;-88
2022/01/29 07:30:34;;;;;;;;;7.33;7.33;;;;;10.53;69.74;102862.66;4960294;28;45400;-87
2022/01/29 07:33:00;;;;;;;;;6.67;6.67;;;;;10.09;69.53;102785.75;4960820;28;45372;-87
2022/01/29 07:35:25;;;;;;;;;6.00;6.00;;;;;11.19;69.54;102973.16;4977701;28;45432;-88
2022/01/29 07:37:50;;;;;;;;;7.00;5.00;;;;;11.20;69.33;102970.50;4978068;28;45424;-87
2022/01/29 07:40:16;;;;;;;;;8.00;7.00;;;;;10.92;69.27;102929.00;4960197;28;53037;-87
2022/01/29 07:42:41;;;;;;;;;7.00;7.00;;;;;11.02;69.30;102940.44;4978227;28;45556;-87
2022/01/29 07:45:06;;;;;;;;;6.67;6.67;;;;;11.25;69.67;102977.59;4977768;28;46300;-87
2022/01/29 07:47:33;;;;;;;;;7.00;6.00;;;;;11.00;69.06;102940.44;4977770;28;45490;-88
2022/01/29 07:49:58;;;;;;;;;6.33;6.33;;;;;11.19;69.61;102976.75;4977663;28;45560;-88
2022/01/29 07:52:24;;;;;;;;;5.67;5.67;;;;;11.16;69.92;102960.75;4977956;28;45600;-87
2022/01/29 07:54:49;;;;;;;;;5.00;5.00;;;;;10.83;69.77;102903.28;4959719;28;48370;-87
2022/01/29 07:57:14;;;;;;;;;8.00;4.67;;;;;10.88;69.61;102904.13;4960453;28;45371;-88
2022/01/29 07:59:40;;;;;;;;;6.33;5.33;;;;;11.08;70.05;102959.97;4977941;28;45442;-88
2022/01/29 08:02:05;;;;;;;;;5.67;4.00;;;;;10.99;70.00;102922.69;4978093;28;45238;-87
2022/01/29 08:04:30;;;;;;;;;8.00;5.00;;;;;11.22;70.00;102966.94;4977196;28;48391;-89
2022/01/29 08:06:56;;;;;;;;;5.67;4.00;;;;;11.24;69.91;102963.34;4977545;28;46217;-88
2022/01/29 08:09:21;;;;;;;;;6.00;6.00;;;;;11.00;70.14;102924.44;4977270;28;50259;-87
2022/01/29 08:11:46;;;;;;;;;7.00;5.33;;;;;11.19;70.00;102947.38;4977367;28;45522;-87
2022/01/29 08:14:12;;;;;;;;;6.00;6.00;;;;;11.39;70.29;102975.63;4976598;28;45459;-88
2022/01/29 08:16:37;;;;;;;;;6.00;6.00;;;;;11.14;70.08;102929.63;4978049;28;45282;-89
2022/01/29 08:19:02;;;;;;;;;4.00;4.00;;;;;11.10;70.23;102917.25;4977374;28;45451;-87
2022/01/29 08:21:28;;;;;;;;;4.00;3.00;;;;;10.99;69.90;102891.53;4978131;28;45382;-88
2022/01/29 08:23:53;;;;;;;;;4.67;4.67;;;;;11.16;70.31;102930.50;4977355;28;46629;-88
2022/01/29 08:26:18;;;;;;;;;4.00;4.00;;;;;10.91;70.49;102898.75;4977444;28;48822;-87
2022/01/29 08:28:44;;;;;;;;;6.00;6.00;;;;;11.37;70.81;102962.28;4959887;28;45700;-88
2022/01/29 08:31:09;;;;;;;;;5.33;5.33;;;;;11.19;70.61;102933.13;4960062;28;45587;-88
2022/01/29 08:33:35;;;;;;;;;5.00;5.00;;;;;11.12;70.56;102918.09;4977295;28;45417;-87
2022/01/29 08:36:03;;;;;;;;;5.67;4.00;;;;;11.43;71.13;102980.06;4977360;28;45473;-87
2022/01/29 08:38:28;;;;;;;;;3.00;3.00;;;;;11.47;70.87;102984.47;4977222;28;45483;-87
2022/01/29 08:40:54;;;;;;;;;6.00;4.67;;;;;11.51;70.93;102985.28;4977663;28;45409;-87
2022/01/29 08:43:21;;;;;;;;;6.00;5.67;;;;;11.16;70.94;102914.50;4959845;28;47450;-87
2022/01/29 08:45:46;;;;;;;;;6.67;5.00;;;;;11.50;70.87;102971.06;4977314;28;45392;-87
2022/01/29 08:48:11;;;;;;;;;5.33;5.33;;;;;11.39;70.49;102931.13;4959205;28;45383;-88
2022/01/29 08:50:37;;;;;;;;;6.00;4.33;;;;;11.21;70.58;102899.31;4977563;28;45588;-87
2022/01/29 08:53:02;;;;;;;;;4.00;4.00;;;;;11.13;70.62;102878.06;4976586;28;45976;-87
2022/01/29 08:55:28;;;;;;;;;5.33;4.33;;;;;11.57;70.61;102959.41;4976984;28;45426;-87
2022/01/29 08:57:53;;;;;;;;;6.00;4.00;;;;;11.23;70.17;102904.63;4959553;28;45395;-87
2022/01/29 09:00:19;;;;;;;;;2.67;2.67;;;;;11.72;70.51;102973.47;4977644;28;45510;-88
2022/01/29 09:02:44;;;;;;;;;3.33;3.00;;;;;11.73;70.46;102968.13;4976504;28;45455;-87
2022/01/29 09:05:12;;;;;;;;;4.00;4.00;;;;;11.72;70.65;102969.00;4976491;28;45338;-88
2022/01/29 09:07:37;;;;;;;;;5.33;5.00;;;;;11.58;70.24;102930.91;4960054;28;45527;-87
2022/01/29 09:10:03;;;;;;;;;7.00;5.00;;;;;11.81;70.46;102966.22;4977280;28;45433;-87
2022/01/29 09:12:30;;;;;;;;;5.00;5.00;;;;;11.38;70.04;102888.44;4958911;28;47219;-87
2022/01/29 09:14:55;;;;;;;;;5.00;5.00;;;;;11.51;70.31;102908.72;4976750;28;45441;-88
2022/01/29 09:17:21;;;;;;;;;4.00;4.00;;;;;11.87;70.32;102967.97;4976529;28;45445;-87
2022/01/29 09:19:46;;;;;;;;;5.67;4.00;;;;;11.71;70.30;102937.00;4977573;28;45524;-89
2022/01/29 09:22:11;;;;;;;;;4.33;4.33;;;;;11.57;70.17;102913.13;4959123;28;48253;-87
2022/01/29 09:24:37;;;;;;;;;4.67;4.67;;;;;11.86;70.23;102955.47;4977969;28;45326;-87
2022/01/29 09:27:02;;;;;;;;;3.67;3.67;;;;;11.86;69.85;102942.09;4980034;28;45753;-87
2022/01/29 09:29:28;;;;;;;;;4.00;4.00;;;;;11.53;70.14;102872.22;4980483;28;45291;-88
2022/01/29 09:31:53;;;;;;;;;5.00;5.00;;;;;12.09;69.64;102951.63;4979805;28;45320;-88
2022/01/29 09:34:18;;;;;;;;;5.67;5.67;;;;;11.77;69.18;102899.47;4979910;28;47772;-87
2022/01/29 09:36:44;;;;;;;;;7.00;6.00;;;;;12.17;69.58;102961.28;4980287;28;45426;-87
2022/01/29 09:39:10;;;;;;;;;5.33;5.33;;;;;12.15;69.47;102956.88;4980111;28;45367;-88
2022/01/29 09:41:38;;;;;;;;;6.67;6.33;;;;;12.03;69.45;102931.19;4979869;28;45403;-87
2022/01/29 09:44:03;;;;;;;;;3.67;3.67;;;;;11.81;69.43;102891.41;4979806;28;45414;-88
2022/01/29 09:46:30;;;;;;;;;6.67;6.67;;;;;12.21;69.38;102960.34;4979315;28;45377;-87
2022/01/29 09:48:56;;;;;;;;;5.67;4.33;;;;;12.22;69.36;102959.47;4962614;28;45304;-89
2022/01/29 09:51:22;;;;;;;;;6.33;4.67;;;;;12.19;69.15;102956.81;4979235;28;46630;-86
2022/01/29 09:53:47;;;;;;;;;3.67;3.67;;;;;12.03;69.64;102940.13;4980808;28;45363;-91
2022/01/29 09:56:14;;;;;;;;;4.33;3.67;;;;;11.87;69.32;102911.88;4963616;28;45268;-84
2022/01/29 09:58:41;;;;;;;;;4.67;4.00;;;;;12.08;69.64;102948.09;4980777;28;45414;-88
2022/01/29 10:01:07;;;;;;;;;3.67;3.67;;;;;12.15;70.10;102978.25;4962153;28;48238;-87
2022/01/29 10:03:33;;;;;;;;;4.00;4.00;;;;;12.06;70.08;102959.69;4962593;28;45436;-88
2022/01/29 10:06:00;;;;;;;;;5.33;5.33;;;;;12.14;70.30;102968.47;4979215;28;45477;-89
2022/01/29 10:08:28;;;;;;;;;5.67;4.67;;;;;12.15;70.34;102972.91;4962980;28;45414;-93
2022/01/29 10:10:59;;;;;;;;;3.67;3.67;;;;;12.16;70.35;102969.34;4961846;28;48188;-86
2022/01/29 10:13:35;;;;;;;;;5.67;5.67;;;;;11.77;70.41;102907.50;4961578;28;45485;-84
2022/01/29 10:16:09;;;;;;;;;2.33;2.33;;;;;12.18;70.41;102971.09;4978599;28;45358;-87
2022/01/29 10:18:36;;;;;;;;;4.00;4.00;;;;;12.22;69.96;102974.59;4962500;28;45576;-92
2022/01/29 10:21:12;;;;;;;;;3.67;3.67;;;;;11.63;70.09;102870.28;4962837;28;48179;-89
2022/01/29 10:23:38;;;;;;;;;3.33;3.33;;;;;12.27;70.03;102972.75;4962319;28;45457;-86
2022/01/29 10:26:05;;;;;;;;;4.33;4.33;;;;;11.70;70.12;102871.97;4961831;28;45340;-90
2022/01/29 10:28:31;;;;;;;;;2.33;2.33;;;;;11.60;69.80;102851.66;4978714;28;45601;-88
2022/01/29 10:31:03;;;;;;;;;3.67;3.67;;;;;12.35;69.96;102969.97;4958123;28;47694;-85
2022/01/29 10:33:41;;;;;;;;;4.00;3.33;;;;;12.22;69.89;102932.72;4959025;28;45432;-86
2022/01/29 10:36:09;;;;;;;;;4.67;2.67;;;;;12.33;69.62;102943.22;4974327;28;45478;-90
2022/01/29 10:38:40;;;;;;;;;4.67;2.67;;;;;12.07;69.43;102887.50;4977178;28;45667;-93
2022/01/29 10:41:27;;;;;;;;;3.00;1.67;;;;;12.06;69.49;102876.81;4961055;28;47436;-96
2022/01/29 10:44:11;;;;;;;;;2.33;2.33;;;;;12.55;69.12;102958.91;4980727;28;45541;-87
2022/01/29 10:46:43;;;;;;;;;5.00;3.00;;;;;12.55;69.05;102959.84;4976686;28;45422;-84
2022/01/29 10:49:17;;;;;;;;;1.67;1.67;;;;;12.52;69.47;102956.31;4958947;28;45703;-83
2022/01/29 10:51:57;;;;;;;;;2.33;2.00;;;;;11.90;69.38;102858.38;4977299;28;45642;-86
2022/01/29 10:54:23;;;;;;;;;5.00;4.00;;;;;12.58;69.04;102978.50;4960915;28;45434;-91
2022/01/29 10:56:59;;;;;;;;;2.67;2.67;;;;;12.27;69.17;102937.09;4957179;28;45539;-92
2022/01/29 10:59:27;;;;;;;;;3.67;3.67;;;;;12.48;69.61;102967.97;4962654;28;45497;-86
2022/01/29 11:01:56;;;;;;;;;3.33;2.33;;;;;11.49;69.75;102798.38;4971649;28;46039;-89
2022/01/29 11:04:22;;;;;;;;;5.00;3.00;;;;;12.54;69.55;102960.72;4979416;28;45157;-88
2022/01/29 11:06:51;;;;;;;;;2.33;2.33;;;;;12.57;69.42;102960.69;4978664;28;45317;-85
2022/01/29 11:09:16;;;;;;;;;1.33;1.33;;;;;12.29;69.38;102911.22;4978849;28;45376;-85
2022/01/29 11:11:45;;;;;;;;;1.67;1.67;;;;;12.44;69.33;102937.72;4988098;28;46741;-85
2022/01/29 11:14:13;;;;;;;;;3.67;3.67;;;;;12.34;69.26;102901.31;4968404;28;45978;-87
2022/01/29 11:16:39;;;;;;;;;3.00;1.00;;;;;12.77;69.19;102970.16;4987959;28;45364;-90
2022/01/29 11:19:06;;;;;;;;;2.00;2.00;;;;;12.40;68.72;102914.59;4998215;28;45405;-88
2022/01/29 11:21:35;;;;;;;;;10.33;10.33;;;;;11.77;68.92;102797.97;4988696;28;47261;-88
2022/01/29 11:24:01;;;;;;;;;1.67;1.67;;;;;11.87;68.91;102810.31;4993081;28;45287;-87
2022/01/29 11:26:29;;;;;;;;;2.67;1.00;;;;;12.85;68.82;102974.50;4962595;28;45482;-89